createdAt,value
2019-03-16T00:01:12.725Z,94.50
2019-03-16T00:03:41.576Z,94.40
2019-03-16T00:06:11.540Z,93.30
2019-03-16T00:08:41.308Z,93.90
2019-03-16T00:11:11.146Z,96.30
2019-03-16T00:13:40.980Z,95.80
2019-03-16T00:16:10.945Z,96.40
2019-03-16T00:18:40.777Z,96.30
2019-03-16T00:21:10.604Z,96.10
2019-03-16T00:23:40.449Z,95.10
2019-03-16T00:26:10.273Z,95.20
2019-03-16T00:28:40.198Z,95.00
2019-03-16T00:31:10.167Z,94.60
2019-03-16T00:33:40.142Z,95.20
2019-03-16T00:36:10.035Z,95.00
2019-03-16T00:38:40.003Z,94.90
2019-03-16T00:41:09.900Z,95.30
2019-03-16T00:43:39.942Z,95.10
2019-03-16T00:46:09.835Z,95.20
2019-03-16T00:48:39.729Z,95.60
2019-03-16T00:51:09.576Z,95.50
2019-03-16T00:53:39.475Z,95.50
2019-03-16T00:56:09.459Z,95.20
2019-03-16T00:58:39.429Z,94.60
2019-03-16T01:01:09.272Z,95.20
2019-03-16T01:03:42.083Z,94.80
2019-03-16T01:06:11.996Z,95.70
2019-03-16T01:08:41.810Z,96.20
2019-03-16T01:11:11.666Z,96.20
2019-03-16T01:13:41.542Z,96.80
2019-03-16T01:16:11.430Z,96.10
2019-03-16T01:18:41.322Z,95.50
2019-03-16T01:21:11.229Z,95.10
2019-03-16T01:23:41.072Z,95.00
2019-03-16T01:26:10.981Z,95.50
2019-03-16T01:28:40.950Z,96.30
2019-03-16T01:31:10.931Z,96.20
2019-03-16T01:33:40.804Z,95.60
2019-03-16T01:36:10.713Z,95.80
2019-03-16T01:38:40.613Z,96.80
2019-03-16T01:41:10.516Z,97.00
2019-03-16T01:43:40.405Z,96.20
2019-03-16T01:46:10.316Z,95.90
2019-03-16T01:48:40.276Z,95.20
2019-03-16T01:51:10.182Z,95.90
2019-03-16T01:53:40.071Z,95.90
2019-03-16T01:56:09.932Z,95.90
2019-03-16T01:58:39.829Z,96.50
2019-03-16T02:01:09.723Z,97.20
2019-03-16T02:03:39.692Z,97.30
2019-03-16T02:06:09.588Z,96.60
2019-03-16T02:08:39.421Z,97.00
2019-03-16T02:11:09.320Z,97.00
2019-03-16T02:13:39.225Z,97.00
2019-03-16T02:16:11.435Z,97.40
2019-03-16T02:18:40.768Z,97.50
2019-03-16T02:21:10.792Z,97.00
2019-03-16T02:23:40.765Z,97.20
2019-03-16T02:26:10.682Z,96.80
2019-03-16T02:28:40.525Z,96.80
2019-03-16T02:31:10.417Z,96.30
2019-03-16T02:33:40.327Z,96.20
2019-03-16T02:36:10.288Z,96.50
2019-03-16T02:38:40.187Z,96.70
2019-03-16T02:41:10.167Z,97.10
2019-03-16T02:43:40.058Z,97.50
2019-03-16T02:46:09.960Z,97.40
2019-03-16T02:48:39.920Z,97.10
2019-03-16T02:51:09.948Z,96.00
2019-03-16T02:53:39.842Z,95.50
2019-03-16T02:56:09.812Z,96.50
2019-03-16T02:58:39.797Z,96.60
2019-03-16T03:01:09.827Z,96.30
2019-03-16T03:03:39.805Z,96.70
2019-03-16T03:06:09.699Z,97.20
2019-03-16T03:08:39.609Z,97.10
2019-03-16T03:11:09.502Z,97.20
2019-03-16T03:13:39.331Z,96.90
2019-03-16T03:16:09.226Z,97.10
2019-03-16T03:18:39.154Z,95.80
2019-03-16T03:21:09.154Z,96.70
2019-03-16T03:23:39.017Z,96.60
2019-03-16T03:26:09.052Z,96.60
2019-03-16T03:28:38.952Z,96.70
2019-03-16T03:31:09.897Z,96.60
2019-03-16T03:33:59.328Z,96.90
2019-03-16T03:36:11.517Z,97.30
2019-03-16T03:38:41.422Z,96.80
2019-03-16T03:41:11.425Z,96.70
2019-03-16T03:43:41.386Z,96.60
2019-03-16T03:46:11.379Z,96.70
2019-03-16T03:48:41.336Z,97.10
2019-03-16T03:51:11.245Z,97.40
2019-03-16T03:53:41.549Z,96.70
2019-03-16T03:56:11.488Z,97.30
2019-03-16T03:58:41.372Z,97.10
2019-03-16T04:01:11.260Z,97.60
2019-03-16T04:03:41.305Z,97.60
2019-03-16T04:06:14.197Z,98.40
2019-03-16T04:08:44.066Z,98.10
2019-03-16T04:11:14.016Z,98.10
2019-03-16T04:13:44.121Z,98.40
2019-03-16T04:16:14.003Z,98.10
2019-03-16T04:18:43.965Z,97.60
2019-03-16T04:21:13.810Z,98.00
2019-03-16T04:23:43.708Z,97.30
2019-03-16T04:26:13.553Z,96.80
2019-03-16T04:28:43.531Z,96.20
2019-03-16T04:31:13.551Z,97.00
2019-03-16T04:33:43.523Z,97.40
2019-03-16T04:36:13.492Z,97.60
2019-03-16T04:38:43.395Z,97.70
2019-03-16T04:41:13.299Z,97.80
2019-03-16T04:43:43.285Z,98.20
2019-03-16T04:46:13.171Z,98.30
2019-03-16T04:48:43.076Z,97.70
2019-03-16T04:51:13.046Z,97.00
2019-03-16T04:53:43.126Z,97.10
2019-03-16T04:56:13.021Z,97.30
2019-03-16T04:58:43.000Z,96.70
2019-03-16T05:01:12.972Z,97.20
2019-03-16T05:03:42.878Z,97.60
2019-03-16T05:06:12.918Z,98.70
2019-03-16T05:08:42.997Z,98.40
2019-03-16T05:11:12.996Z,98.30
2019-03-16T05:13:42.888Z,98.70
2019-03-16T05:16:12.802Z,98.70
2019-03-16T05:18:42.695Z,98.80
2019-03-16T05:21:12.540Z,98.40
2019-03-16T05:23:42.440Z,99.90
2019-03-16T05:26:12.440Z,99.50
2019-03-16T05:28:42.275Z,99.20
2019-03-16T05:31:12.247Z,99.00
2019-03-16T05:33:42.144Z,99.30
2019-03-16T05:36:12.036Z,97.60
2019-03-16T05:38:41.882Z,97.40
2019-03-16T05:41:11.769Z,98.10
2019-03-16T05:43:41.599Z,98.50
2019-03-16T05:46:11.573Z,98.40
2019-03-16T05:48:41.458Z,98.90
2019-03-16T05:51:11.444Z,98.30
2019-03-16T05:53:41.350Z,98.90
2019-03-16T05:56:11.256Z,98.90
2019-03-16T05:58:41.147Z,99.00
2019-03-16T06:01:11.059Z,98.90
2019-03-16T06:03:40.964Z,98.80
2019-03-16T06:06:10.801Z,98.30
2019-03-16T06:08:40.706Z,98.20
2019-03-16T06:11:10.611Z,97.30
2019-03-16T06:13:40.509Z,97.50
2019-03-16T06:16:10.477Z,97.50
2019-03-16T06:18:40.452Z,96.90
2019-03-16T06:21:10.273Z,96.80
2019-03-16T06:23:40.257Z,95.90
2019-03-16T06:26:10.160Z,95.20
2019-03-16T06:28:40.133Z,95.10
2019-03-16T06:31:10.023Z,95.70
2019-03-16T06:33:40.079Z,95.30
2019-03-16T06:36:10.122Z,94.70
2019-03-16T06:38:40.053Z,94.10
2019-03-16T06:41:09.943Z,93.80
2019-03-16T06:43:39.904Z,93.60
2019-03-16T06:46:09.808Z,93.60
2019-03-16T06:48:39.794Z,93.50
2019-03-16T06:51:09.708Z,93.90
2019-03-16T06:53:39.602Z,93.60
2019-03-16T06:56:09.454Z,93.10
2019-03-16T06:58:39.338Z,92.40
2019-03-16T07:01:09.172Z,92.40
2019-03-16T07:03:39.210Z,92.00
2019-03-16T07:06:09.121Z,91.50
2019-03-16T07:08:39.028Z,92.10
2019-03-16T07:11:09.037Z,92.70
2019-03-16T07:13:39.003Z,92.50
2019-03-16T07:16:08.901Z,92.40
2019-03-16T07:18:38.881Z,92.90
2019-03-16T07:21:08.862Z,92.60
2019-03-16T07:23:38.852Z,91.80
2019-03-16T07:26:14.682Z,91.00
2019-03-16T07:28:40.285Z,90.70
2019-03-16T07:31:10.247Z,89.70
2019-03-16T07:33:40.155Z,88.70
2019-03-16T07:36:10.062Z,89.00
2019-03-16T07:38:40.033Z,89.00
2019-03-16T07:41:09.987Z,88.10
2019-03-16T07:43:39.859Z,87.40
2019-03-16T07:46:09.829Z,87.10
2019-03-16T07:48:39.757Z,86.80
2019-03-16T07:51:09.707Z,86.80
2019-03-16T07:53:39.687Z,86.60
2019-03-16T07:56:09.601Z,85.80
2019-03-16T07:58:39.505Z,85.90
2019-03-16T08:01:09.509Z,86.30
2019-03-16T08:03:39.344Z,84.40
2019-03-16T08:06:09.214Z,84.50
2019-03-16T08:08:39.121Z,83.60
2019-03-16T08:11:08.957Z,83.40
2019-03-16T08:13:38.808Z,83.00
2019-03-16T08:16:08.742Z,82.50
2019-03-16T08:18:38.808Z,84.30
2019-03-16T08:21:08.787Z,85.30
2019-03-16T08:23:38.781Z,83.60
2019-03-16T08:26:08.829Z,82.80
2019-03-16T08:28:38.919Z,81.30
2019-03-16T08:31:08.755Z,82.50
2019-03-16T08:33:38.665Z,81.90
2019-03-16T08:36:09.645Z,79.60
2019-03-16T08:38:39.548Z,79.70
2019-03-16T08:41:09.613Z,78.60
2019-03-16T08:43:39.588Z,78.30
2019-03-16T08:46:09.445Z,77.50
2019-03-16T08:48:39.497Z,76.40
2019-03-16T08:51:09.504Z,76.60
2019-03-16T08:53:39.405Z,77.40
2019-03-16T08:56:09.321Z,77.60
2019-03-16T08:58:39.304Z,77.70
2019-03-16T09:01:09.217Z,76.60
2019-03-16T09:03:43.927Z,76.90
2019-03-16T09:06:10.771Z,75.30
2019-03-16T09:08:40.711Z,76.20
2019-03-16T09:11:10.613Z,78.40
2019-03-16T09:13:40.568Z,76.70
2019-03-16T09:16:10.467Z,75.90
2019-03-16T09:18:40.406Z,76.40
2019-03-16T09:21:10.325Z,74.70
2019-03-16T09:23:40.374Z,71.90
2019-03-16T09:26:10.206Z,71.90
2019-03-16T09:28:40.054Z,71.40
2019-03-16T09:31:09.983Z,72.90
2019-03-16T09:33:39.939Z,71.50
2019-03-16T09:36:09.935Z,71.60
2019-03-16T09:38:39.915Z,68.10
2019-03-16T09:41:09.820Z,69.50
2019-03-16T09:43:39.783Z,72.30
2019-03-16T09:46:09.633Z,71.90
2019-03-16T09:48:39.561Z,68.00
2019-03-16T09:51:09.579Z,70.50
2019-03-16T09:53:39.558Z,69.50
2019-03-16T09:56:09.544Z,64.10
2019-03-16T09:58:39.599Z,64.00
2019-03-16T10:01:09.593Z,65.20
2019-03-16T10:03:39.576Z,66.20
2019-03-16T10:06:09.411Z,64.70
2019-03-16T10:08:39.482Z,64.90
2019-03-16T10:11:09.379Z,59.60
2019-03-16T10:13:39.374Z,62.80
2019-03-16T10:16:09.209Z,60.20
2019-03-16T10:18:39.244Z,59.20
2019-03-16T10:21:09.143Z,62.20
2019-03-16T10:23:39.042Z,62.10
2019-03-16T10:26:09.038Z,61.60
2019-03-16T10:28:43.601Z,59.80
2019-03-16T10:31:10.479Z,61.90
2019-03-16T10:33:40.454Z,60.80
2019-03-16T10:36:10.302Z,59.20
2019-03-16T10:38:40.233Z,57.20
2019-03-16T10:41:10.124Z,59.30
2019-03-16T10:43:39.959Z,57.50
2019-03-16T10:46:09.882Z,59.00
2019-03-16T10:48:40.780Z,56.80
2019-03-16T10:51:10.625Z,55.40
2019-03-16T10:53:40.533Z,54.70
2019-03-16T10:56:10.529Z,55.60
2019-03-16T10:58:41.456Z,55.50
2019-03-16T11:01:11.409Z,57.70
2019-03-16T11:03:41.377Z,57.40
2019-03-16T11:06:11.216Z,56.60
2019-03-16T11:08:41.141Z,57.20
2019-03-16T11:11:10.966Z,57.00
2019-03-16T11:13:40.808Z,56.30
2019-03-16T11:16:10.703Z,56.00
2019-03-16T11:18:40.718Z,58.90
2019-03-16T11:21:10.667Z,57.50
2019-03-16T11:23:40.639Z,58.00
2019-03-16T11:26:10.554Z,57.30
2019-03-16T11:28:40.468Z,58.50
2019-03-16T11:31:10.438Z,58.60
2019-03-16T11:33:40.421Z,56.50
2019-03-16T11:36:10.325Z,57.70
2019-03-16T11:38:40.260Z,56.30
2019-03-16T11:41:10.238Z,55.70
2019-03-16T11:43:41.851Z,55.60
2019-03-16T11:46:11.821Z,54.40
2019-03-16T11:48:41.724Z,53.60
2019-03-16T11:51:11.771Z,53.30
2019-03-16T11:53:41.622Z,55.80
2019-03-16T11:56:17.977Z,58.10
2019-03-16T11:58:43.112Z,57.10
2019-03-16T12:01:13.037Z,55.40
2019-03-16T12:03:42.927Z,54.40
2019-03-16T12:06:12.807Z,55.60
2019-03-16T12:08:42.710Z,55.30
2019-03-16T12:11:12.621Z,57.10
2019-03-16T12:13:43.916Z,57.10
2019-03-16T12:16:14.381Z,56.40
2019-03-16T12:18:44.249Z,54.80
2019-03-16T12:21:18.371Z,54.20
2019-03-16T12:23:49.723Z,53.40
2019-03-16T12:26:20.272Z,53.50
2019-03-16T12:28:50.309Z,54.80
2019-03-16T12:31:20.127Z,54.80
2019-03-16T12:33:49.968Z,53.20
2019-03-16T12:36:19.949Z,54.20
2019-03-16T12:38:49.870Z,54.70
2019-03-16T12:41:19.846Z,54.00
2019-03-16T12:43:49.791Z,55.60
2019-03-16T12:46:19.769Z,53.20
2019-03-16T12:48:49.586Z,52.90
2019-03-16T12:51:19.572Z,53.80
2019-03-16T12:53:49.468Z,52.70
2019-03-16T12:56:19.444Z,53.70
2019-03-16T12:58:49.343Z,50.90
2019-03-16T13:01:19.196Z,53.10
2019-03-16T13:03:50.372Z,52.70
2019-03-16T13:06:20.607Z,50.70
2019-03-16T13:08:50.574Z,48.60
2019-03-16T13:11:20.430Z,49.30
2019-03-16T13:13:50.338Z,49.30
2019-03-16T13:16:20.312Z,49.50
2019-03-16T13:18:50.217Z,50.70
2019-03-16T13:21:20.128Z,51.20
2019-03-16T13:23:50.178Z,50.60
2019-03-16T13:26:20.119Z,51.00
2019-03-16T13:28:50.091Z,52.10
2019-03-16T13:31:20.006Z,51.20
2019-03-16T13:33:50.290Z,52.10
2019-03-16T13:36:21.204Z,51.30
2019-03-16T13:38:51.050Z,51.70
2019-03-16T13:41:20.885Z,51.70
2019-03-16T13:43:50.796Z,50.70
2019-03-16T13:46:24.313Z,50.50
2019-03-16T13:48:54.252Z,51.10
2019-03-16T13:51:24.243Z,49.60
2019-03-16T13:53:54.206Z,48.80
2019-03-16T13:56:24.062Z,48.90
2019-03-16T13:58:54.181Z,49.00
2019-03-16T14:01:24.087Z,49.40
2019-03-16T14:03:54.070Z,47.40
2019-03-16T14:06:24.057Z,48.10
2019-03-16T14:08:54.311Z,45.70
2019-03-16T14:11:24.216Z,48.50
2019-03-16T14:13:54.099Z,49.10
2019-03-16T14:16:24.160Z,48.00
2019-03-16T14:18:54.191Z,49.80
2019-03-16T14:21:24.115Z,48.60
2019-03-16T14:23:54.080Z,49.00
2019-03-16T14:26:24.052Z,47.40
2019-03-16T14:28:54.035Z,48.60
2019-03-16T14:31:23.856Z,48.90
2019-03-16T14:33:53.907Z,48.80
2019-03-16T14:36:23.778Z,49.50
2019-03-16T14:38:53.707Z,47.90
2019-03-16T14:41:23.524Z,48.50
2019-03-16T14:43:53.669Z,48.20
2019-03-16T14:46:23.629Z,49.20
2019-03-16T14:48:54.535Z,50.90
2019-03-16T14:51:24.928Z,50.00
2019-03-16T14:53:54.871Z,49.10
2019-03-16T14:56:24.847Z,48.10
2019-03-16T14:58:54.744Z,49.00
2019-03-16T15:01:24.592Z,50.40
2019-03-16T15:03:54.574Z,50.10
2019-03-16T15:06:24.615Z,49.70
2019-03-16T15:08:54.513Z,48.10
2019-03-16T15:11:24.504Z,49.30
2019-03-16T15:13:54.409Z,49.90
2019-03-16T15:16:26.437Z,50.50
2019-03-16T15:18:56.409Z,49.90
2019-03-16T15:21:26.410Z,49.10
2019-03-16T15:23:56.337Z,49.60
2019-03-16T15:26:26.445Z,48.20
2019-03-16T15:28:56.498Z,48.80
2019-03-16T15:31:26.553Z,48.30
2019-03-16T15:33:56.612Z,48.10
2019-03-16T15:36:26.634Z,48.80
2019-03-16T15:38:56.576Z,48.20
2019-03-16T15:41:26.476Z,48.40
2019-03-16T15:43:56.392Z,49.00
2019-03-16T15:46:26.326Z,49.50
2019-03-16T15:48:56.146Z,49.30
2019-03-16T15:51:26.044Z,48.80
2019-03-16T15:53:55.962Z,48.70
2019-03-16T15:56:27.677Z,48.10
2019-03-16T15:58:57.561Z,49.60
2019-03-16T16:01:27.532Z,49.30
2019-03-16T16:03:57.374Z,49.30
2019-03-16T16:06:27.282Z,50.40
2019-03-16T16:08:57.267Z,50.90
2019-03-16T16:11:27.162Z,50.40
2019-03-16T16:13:57.078Z,50.20
2019-03-16T16:16:26.917Z,50.50
2019-03-16T16:18:56.969Z,50.40
2019-03-16T16:21:26.965Z,50.60
2019-03-16T16:23:56.810Z,50.80
2019-03-16T16:26:26.895Z,51.20
2019-03-16T16:28:56.976Z,51.80
2019-03-16T16:31:26.939Z,52.40
2019-03-16T16:33:56.833Z,52.70
2019-03-16T16:36:26.740Z,53.20
2019-03-16T16:38:56.579Z,53.10
2019-03-16T16:41:26.490Z,53.50
2019-03-16T16:43:56.392Z,53.90
2019-03-16T16:46:26.302Z,54.20
2019-03-16T16:48:58.954Z,54.30
2019-03-16T16:51:28.038Z,54.70
2019-03-16T16:53:57.885Z,55.30
2019-03-16T16:56:27.861Z,55.90
2019-03-16T16:58:57.853Z,56.30
2019-03-16T17:01:29.771Z,56.80
2019-03-16T17:04:00.047Z,56.90
2019-03-16T17:06:29.941Z,57.80
2019-03-16T17:08:59.912Z,58.60
2019-03-16T17:11:29.895Z,59.10
2019-03-16T17:13:59.878Z,59.40
2019-03-16T17:16:29.933Z,59.60
2019-03-16T17:18:59.940Z,59.90
2019-03-16T17:21:29.881Z,60.70
2019-03-16T17:23:59.847Z,61.30
2019-03-16T17:26:29.830Z,61.90
2019-03-16T17:28:59.802Z,61.60
2019-03-16T17:31:41.380Z,62.40
2019-03-16T17:34:01.365Z,62.90
2019-03-16T17:36:31.141Z,63.50
2019-03-16T17:39:00.956Z,63.50
2019-03-16T17:41:30.985Z,63.50
2019-03-16T17:44:00.880Z,63.20
2019-03-16T17:46:30.766Z,63.40
2019-03-16T17:49:00.577Z,63.60
2019-03-16T17:51:30.552Z,63.40
2019-03-16T17:54:00.537Z,63.50
2019-03-16T17:56:30.597Z,63.80
2019-03-16T17:59:00.644Z,64.10
2019-03-16T18:01:30.491Z,64.30
2019-03-16T18:04:00.464Z,64.30
2019-03-16T18:06:30.545Z,64.40
2019-03-16T18:09:01.838Z,64.30
2019-03-16T18:11:32.857Z,63.90
2019-03-16T18:14:02.832Z,64.10
2019-03-16T18:16:32.869Z,64.30
2019-03-16T18:19:02.780Z,64.80
2019-03-16T18:21:32.763Z,65.20
2019-03-16T18:24:02.733Z,65.50
2019-03-16T18:26:32.716Z,65.50
2019-03-16T18:29:03.688Z,66.00
2019-03-16T18:31:33.614Z,66.10
2019-03-16T18:34:03.517Z,66.40
2019-03-16T18:36:33.624Z,66.60
2019-03-16T18:39:04.771Z,67.60
2019-03-16T18:41:34.717Z,68.10
2019-03-16T18:44:04.695Z,68.60
2019-03-16T18:46:35.597Z,68.90
2019-03-16T18:49:05.524Z,68.70
2019-03-16T18:51:35.412Z,69.00
2019-03-16T18:54:05.405Z,68.50
2019-03-16T18:56:35.312Z,69.30
2019-03-16T18:59:05.390Z,69.00
2019-03-16T19:01:35.421Z,69.10
2019-03-16T19:04:05.368Z,69.40
2019-03-16T19:06:35.264Z,69.70
2019-03-16T19:09:07.520Z,69.90
2019-03-16T19:11:37.534Z,70.40
2019-03-16T19:14:07.464Z,70.20
2019-03-16T19:16:38.436Z,71.00
2019-03-16T19:19:08.352Z,71.10
2019-03-16T19:21:38.270Z,71.70
2019-03-16T19:24:08.245Z,72.00
2019-03-16T19:26:38.221Z,72.70
2019-03-16T19:29:08.142Z,73.30
2019-03-16T19:31:37.993Z,73.60
2019-03-16T19:34:07.826Z,74.70
2019-03-16T19:36:37.821Z,75.20
2019-03-16T19:39:07.788Z,75.50
2019-03-16T19:41:37.705Z,76.30
2019-03-16T19:44:07.697Z,76.50
2019-03-16T19:46:37.673Z,76.30
2019-03-16T19:49:07.603Z,76.00
2019-03-16T19:51:37.517Z,75.80
2019-03-16T19:54:07.583Z,75.10
2019-03-16T19:56:37.482Z,75.10
2019-03-16T19:59:07.405Z,75.10
2019-03-16T20:01:37.244Z,74.70
2019-03-16T20:04:07.301Z,74.60
2019-03-16T20:06:37.222Z,74.80
2019-03-16T20:09:07.421Z,75.00
2019-03-16T20:11:37.376Z,75.20
2019-03-16T20:14:07.263Z,75.10
2019-03-16T20:16:38.309Z,75.20
2019-03-16T20:19:08.337Z,75.40
2019-03-16T20:21:38.277Z,75.60
2019-03-16T20:24:08.240Z,75.60
2019-03-16T20:26:38.255Z,75.60
2019-03-16T20:29:08.322Z,75.80
2019-03-16T20:31:46.905Z,76.10
2019-03-16T20:34:09.896Z,76.20
2019-03-16T20:36:39.893Z,76.70
2019-03-16T20:39:09.873Z,77.30
2019-03-16T20:41:39.771Z,77.30
2019-03-16T20:44:09.783Z,77.20
2019-03-16T20:46:39.625Z,76.70
2019-03-16T20:49:09.539Z,76.80
2019-03-16T20:51:39.597Z,77.40
2019-03-16T20:54:09.650Z,77.90
2019-03-16T20:56:39.630Z,78.30
2019-03-16T20:59:09.647Z,78.90
2019-03-16T21:01:39.625Z,79.20
2019-03-16T21:04:10.545Z,79.30
2019-03-16T21:06:40.460Z,79.90
2019-03-16T21:09:10.378Z,80.60
2019-03-16T21:11:40.225Z,80.90
2019-03-16T21:14:10.124Z,81.60
2019-03-16T21:16:40.033Z,82.80
2019-03-16T21:19:09.859Z,83.10
2019-03-16T21:21:39.692Z,83.30
2019-03-16T21:24:09.529Z,83.70
2019-03-16T21:26:51.693Z,83.90
2019-03-16T21:29:11.028Z,84.10
2019-03-16T21:31:41.100Z,84.30
2019-03-16T21:34:11.069Z,84.70
2019-03-16T21:36:41.921Z,85.20
2019-03-16T21:39:12.030Z,85.20
2019-03-16T21:41:44.282Z,85.90
2019-03-16T21:44:13.444Z,86.30
2019-03-16T21:46:43.968Z,86.40
2019-03-16T21:49:14.060Z,86.10
2019-03-16T21:51:43.959Z,87.00
2019-03-16T21:54:13.808Z,87.70
2019-03-16T21:56:43.699Z,88.20
2019-03-16T21:59:13.680Z,89.30
2019-03-16T22:01:43.574Z,89.60
2019-03-16T22:04:13.520Z,89.60
2019-03-16T22:06:43.485Z,90.20
2019-03-16T22:09:13.529Z,89.40
2019-03-16T22:11:43.436Z,90.20
2019-03-16T22:14:13.335Z,90.60
2019-03-16T22:16:44.365Z,91.40
2019-03-16T22:19:14.968Z,91.20
2019-03-16T22:21:44.807Z,91.00
2019-03-16T22:24:14.706Z,90.70
2019-03-16T22:26:44.682Z,91.10
2019-03-16T22:29:14.579Z,91.20
2019-03-16T22:31:44.480Z,91.30
2019-03-16T22:34:14.517Z,91.00
2019-03-16T22:36:44.587Z,91.00
2019-03-16T22:39:14.490Z,90.80
2019-03-16T22:41:44.313Z,90.60
2019-03-16T22:44:14.331Z,90.50
2019-03-16T22:46:44.224Z,90.50
2019-03-16T22:49:14.125Z,90.80
2019-03-16T22:51:44.023Z,91.40
2019-03-16T22:54:13.999Z,90.90
2019-03-16T22:56:43.823Z,91.00
2019-03-16T22:59:15.052Z,92.00
2019-03-16T23:01:45.080Z,91.70
2019-03-16T23:04:14.987Z,91.30
2019-03-16T23:06:44.957Z,92.40
2019-03-16T23:09:14.872Z,91.90
2019-03-16T23:11:44.691Z,92.40
2019-03-16T23:14:14.665Z,92.80
2019-03-16T23:16:44.479Z,93.30
2019-03-16T23:19:14.384Z,93.30
2019-03-16T23:21:44.224Z,93.60
2019-03-16T23:24:14.114Z,93.00
2019-03-16T23:26:44.022Z,92.80
2019-03-16T23:29:13.924Z,92.90
2019-03-16T23:31:43.901Z,93.00
2019-03-16T23:34:19.194Z,93.20
2019-03-16T23:36:45.340Z,93.40
2019-03-16T23:39:15.241Z,93.60
2019-03-16T23:41:45.179Z,93.70
2019-03-16T23:44:15.081Z,93.70
2019-03-16T23:46:45.051Z,93.90
2019-03-16T23:49:14.955Z,94.40
2019-03-16T23:51:44.924Z,94.00
2019-03-16T23:54:14.842Z,93.60
2019-03-16T23:56:44.792Z,93.20
2019-03-16T23:59:14.730Z,93.60
